Time;durP1;ratioP1;P1;durP2;ratioP2;P2;SDS_P1;SDS_P2;PMS_P1;PMS_P2;Temp;Humidity;BMP_temperature;BMP_pressure;BME280_temperature;BME280_humidity;BME280_pressure;Samples;Min_cycle;Max_cycle;Signal;HPM_P1;HPM_P2
2021/06/21 00:02:06;;;;;;;3.20;2.97;;;25.10;90.70;;;;;;4986194;28;20474;-85
2021/06/21 00:04:49;;;;;;;568.67;70.60;;;24.90;90.80;;;;;;5004420;28;20455;-84
2021/06/21 00:07:21;;;;;;;3.30;3.13;;;24.80;91.60;;;;;;5010844;28;20642;-83
2021/06/21 00:10:02;;;;;;;3.30;3.10;;;24.80;91.90;;;;;;5002777;28;20521;-84
2021/06/21 00:12:40;;;;;;;3.10;2.90;;;24.60;92.20;;;;;;5001983;28;20425;-85
2021/06/21 00:15:16;;;;;;;3.40;3.20;;;24.60;92.80;;;;;;4993587;28;20893;-84
2021/06/21 00:17:52;;;;;;;3.27;3.07;;;24.70;92.80;;;;;;4980495;28;20507;-82
2021/06/21 00:20:40;;;;;;;;;;;;;;;;;;;;;
2021/06/21 00:23:26;;;;;;;3.47;2.90;;;24.70;93.30;;;;;;4993252;28;20537;-83
2021/06/21 00:26:01;;;;;;;3.10;2.90;;;24.70;93.50;;;;;;4976053;28;21018;-84
2021/06/21 00:28:44;;;;;;;3.40;3.10;;;24.60;93.60;;;;;;4977847;28;20474;-84
2021/06/21 00:31:46;;;;;;;3.43;3.23;;;24.70;93.70;;;;;;4975891;28;20948;-85
2021/06/21 00:34:29;;;;;;;;;;;;;;;;;;;;;
2021/06/21 00:37:01;;;;;;;3.43;3.13;;;24.50;94.10;;;;;;4992547;28;20475;-83
2021/06/21 00:39:53;;;;;;;3.87;3.50;;;24.60;94.50;;;;;;4982008;28;20782;-84
2021/06/21 00:42:31;;;;;;;3.63;3.33;;;24.80;94.30;;;;;;4977230;28;20465;-89
2021/06/21 00:45:14;;;;;;;4.03;2.90;;;24.70;94.40;;;;;;4978845;28;20546;-85
2021/06/21 00:47:59;;;;;;;3.50;3.30;;;24.60;94.70;;;;;;4979119;28;20533;-84
2021/06/21 00:50:40;;;;;;;3.50;3.20;;;24.40;95.30;;;;;;4976365;28;20462;-84
2021/06/21 00:53:29;;;;;;;4.10;3.70;;;24.30;95.80;;;;;;4980420;28;20450;-84
2021/06/21 00:56:08;;;;;;;3.70;3.40;;;24.30;96.30;;;;;;4978303;28;20443;-86
2021/06/21 00:58:47;;;;;;;4.17;3.40;;;24.30;96.50;;;;;;4993532;28;20543;-86
2021/06/21 01:01:19;;;;;;;3.90;3.50;;;24.40;96.50;;;;;;4995571;28;21169;-85
2021/06/21 01:03:54;;;;;;;4.03;3.63;;;24.30;96.50;;;;;;4995555;28;20454;-85
2021/06/21 01:06:40;;;;;;;3.70;3.50;;;24.40;96.60;;;;;;4980851;28;22195;-84
2021/06/21 01:09:22;;;;;;;5.60;4.23;;;24.30;96.90;;;;;;4978339;28;21069;-88
2021/06/21 01:12:04;;;;;;;3.90;3.40;;;24.30;97.00;;;;;;4995300;28;20455;-85
2021/06/21 01:14:50;;;;;;;4.47;3.93;;;24.20;97.30;;;;;;4977476;28;20585;-85
2021/06/21 01:17:49;;;;;;;4.33;3.73;;;24.10;97.50;;;;;;4975281;28;20480;-85
2021/06/21 01:20:41;;;;;;;3.80;3.50;;;24.10;97.90;;;;;;4992634;28;20545;-83
2021/06/21 01:23:53;;;;;;;3.80;3.50;;;24.00;98.30;;;;;;4974662;28;20537;-84
2021/06/21 01:27:17;;;;;;;4.00;3.70;;;23.80;98.80;;;;;;4976476;28;20518;-81
2021/06/21 01:30:13;;;;;;;4.60;4.20;;;23.70;99.60;;;;;;4960658;28;20520;-85
2021/06/21 01:33:09;;;;;;;8.57;4.40;;;23.60;99.90;;;;;;4976536;28;20588;-86
2021/06/21 01:36:11;;;;;;;6.30;5.20;;;23.60;99.90;;;;;;4977958;28;22279;-84
2021/06/21 01:42:08;;;;;;;5.17;4.73;;;23.50;99.90;;;;;;4992369;28;20451;-84
2021/06/21 01:45:40;;;;;;;5.20;4.70;;;23.50;99.90;;;;;;4980434;28;21867;-85
2021/06/21 01:48:59;;;;;;;4.97;4.53;;;23.40;99.90;;;;;;4904973;29;20487;-85
2021/06/21 01:51:40;;;;;;;5.83;5.20;;;23.40;99.90;;;;;;4900079;29;20462;-84
2021/06/21 01:54:17;;;;;;;5.60;5.10;;;23.30;99.90;;;;;;4913946;29;20462;-85
2021/06/21 01:56:48;;;;;;;5.60;5.10;;;23.10;99.90;;;;;;4979064;28;22437;-85
2021/06/21 01:59:19;;;;;;;6.40;5.80;;;23.00;99.90;;;;;;4974866;28;20459;-86
2021/06/21 02:02:40;;;;;;;5.93;5.40;;;23.00;99.90;;;;;;4978941;28;20467;-85
2021/06/21 02:05:21;;;;;;;6.37;5.77;;;23.00;99.90;;;;;;4976515;28;20481;-85
2021/06/21 02:07:58;;;;;;;6.87;5.27;;;22.80;99.90;;;;;;4978293;28;20494;-84
2021/06/21 02:10:32;;;;;;;7.37;6.30;;;22.90;99.90;;;;;;4991467;28;20486;-84
2021/06/21 02:13:04;;;;;;;6.47;5.90;;;22.90;99.90;;;;;;4974431;28;20517;-85
2021/06/21 02:15:32;;;;;;;6.20;5.80;;;22.90;99.90;;;;;;4974159;28;20474;-84
2021/06/21 02:18:12;;;;;;;8.10;7.30;;;22.90;99.90;;;;;;4973169;28;20471;-85
2021/06/21 02:21:02;;;;;;;7.57;6.97;;;22.90;99.90;;;;;;4968909;28;20465;-84
2021/06/21 02:23:41;;;;;;;7.93;7.20;;;22.70;99.90;;;;;;4973375;28;20467;-84
2021/06/21 02:26:11;;;;;;;8.00;7.07;;;22.70;99.90;;;;;;4974026;28;20461;-84
2021/06/21 02:28:50;;;;;;;8.73;7.97;;;22.70;99.90;;;;;;4975200;28;20469;-83
2021/06/21 02:31:20;;;;;;;9.53;8.63;;;22.60;99.90;;;;;;4993075;28;21114;-86
2021/06/21 02:33:53;;;;;;;10.07;9.10;;;22.60;99.90;;;;;;4987190;28;20446;-84
2021/06/21 02:36:32;;;;;;;11.23;10.23;;;22.50;99.90;;;;;;4994728;28;20459;-85
2021/06/21 02:39:04;;;;;;;10.00;9.20;;;22.40;99.90;;;;;;4990368;28;20542;-83
2021/06/21 02:41:37;;;;;;;9.37;8.53;;;22.30;99.90;;;;;;4990900;28;20455;-85
2021/06/21 02:44:10;;;;;;;10.60;9.60;;;22.20;99.90;;;;;;4986171;28;20450;-87
2021/06/21 02:46:59;;;;;;;9.83;9.03;;;22.20;99.90;;;;;;4988375;28;20471;-84
2021/06/21 02:49:34;;;;;;;14.40;10.07;;;22.20;99.90;;;;;;5005836;28;20486;-86
2021/06/21 02:52:16;;;;;;;9.90;9.00;;;22.10;99.90;;;;;;4979199;28;20447;-86
2021/06/21 02:55:14;;;;;;;11.07;9.40;;;22.20;99.90;;;;;;4977210;28;20963;-85
2021/06/21 02:57:51;;;;;;;10.47;9.37;;;22.20;99.90;;;;;;4995631;28;20470;-84
2021/06/21 03:00:40;;;;;;;9.67;8.97;;;22.30;99.90;;;;;;4996576;28;20461;-85
2021/06/21 03:03:10;;;;;;;9.87;8.87;;;22.20;99.90;;;;;;4998513;28;20493;-86
2021/06/21 03:05:49;;;;;;;11.33;9.50;;;22.10;99.90;;;;;;4991851;28;20457;-83
2021/06/21 03:09:24;;;;;;;12.13;9.77;;;22.00;99.90;;;;;;5001015;28;20510;-86
2021/06/21 03:12:59;;;;;;;10.37;9.47;;;22.00;99.90;;;;;;4968310;28;20454;-84
2021/06/21 03:15:56;;;;;;;10.90;9.77;;;21.90;99.90;;;;;;4915999;29;20458;-85
2021/06/21 03:18:32;;;;;;;10.00;9.10;;;21.80;99.90;;;;;;4926062;29;21054;-84
2021/06/21 03:24:57;;;;;;;12.10;10.43;;;21.80;99.90;;;;;;4992280;28;20427;-85
2021/06/21 03:27:44;;;;;;;10.93;10.03;;;21.60;99.90;;;;;;4978383;28;21644;-84
2021/06/21 03:30:26;;;;;;;14.40;10.37;;;21.60;99.90;;;;;;4982452;28;20515;-85
2021/06/21 03:33:05;;;;;;;12.37;11.07;;;21.60;99.90;;;;;;5003678;28;20524;-85
2021/06/21 03:35:41;;;;;;;11.57;10.57;;;21.70;99.90;;;;;;4996854;28;20451;-83
2021/06/21 03:38:21;;;;;;;12.43;11.30;;;21.70;99.90;;;;;;4992919;28;21030;-85
2021/06/21 03:44:38;;;;;;;13.10;11.40;;;21.50;99.90;;;;;;4775124;29;20445;-84
2021/06/21 03:47:20;;;;;;;13.33;12.13;;;21.60;99.90;;;;;;4837855;29;20551;-85
2021/06/21 03:49:55;;;;;;;12.90;11.60;;;21.50;99.90;;;;;;4911439;29;20588;-86
2021/06/21 03:53:25;;;;;;;13.47;12.13;;;21.50;99.90;;;;;;4927749;28;20546;-84
2021/06/21 03:56:47;;;;;;;14.53;13.13;;;21.50;99.90;;;;;;4803898;29;20456;-85
2021/06/21 04:00:07;;;;;;;13.90;12.60;;;21.50;99.90;;;;;;4857000;29;20481;-85
2021/06/21 04:02:42;;;;;;;14.40;13.10;;;21.50;99.90;;;;;;4835488;29;20559;-85
2021/06/21 04:05:20;;;;;;;15.23;13.73;;;21.50;99.90;;;;;;4852645;29;20472;-85
2021/06/21 04:07:57;;;;;;;15.37;13.77;;;21.40;99.90;;;;;;4855029;29;20558;-85
2021/06/21 04:10:33;;;;;;;15.47;14.00;;;21.50;99.90;;;;;;4876879;29;21206;-85
2021/06/21 04:21:10;;;;;;;;;;;;;;;;;;;;;
2021/06/21 04:23:55;;;;;;;18.47;15.43;;;21.50;99.90;;;;;;4872969;29;20928;-85
2021/06/21 04:26:43;;;;;;;18.57;16.70;;;21.50;99.90;;;;;;4883329;29;20449;-86
2021/06/21 04:29:28;;;;;;;17.80;16.10;;;21.60;99.90;;;;;;4882813;29;20460;-85
2021/06/21 04:32:39;;;;;;;19.00;17.20;;;21.60;99.90;;;;;;4872388;29;20462;-85
2021/06/21 04:35:12;;;;;;;17.30;15.60;;;21.70;99.90;;;;;;4878216;29;20621;-85
2021/06/21 04:41:32;;;;;;;17.80;16.10;;;21.60;99.90;;;;;;4791067;29;20812;-83
2021/06/21 04:48:21;;;;;;;17.73;16.00;;;21.60;99.90;;;;;;4890083;28;20824;-85
2021/06/21 04:51:22;;;;;;;18.37;16.60;;;21.80;99.90;;;;;;4851322;29;20494;-85
2021/06/21 04:54:03;;;;;;;19.23;17.43;;;21.80;99.90;;;;;;4864109;29;20482;-85
2021/06/21 04:57:04;;;;;;;17.73;16.20;;;21.80;99.90;;;;;;4864072;29;20460;-85
2021/06/21 05:00:08;;;;;;;18.77;16.97;;;21.70;99.90;;;;;;4872243;29;20462;-86
2021/06/21 05:03:09;;;;;;;18.63;16.93;;;21.50;99.90;;;;;;4885396;29;20467;-85
2021/06/21 05:06:17;;;;;;;20.07;18.17;;;21.60;99.90;;;;;;4871622;29;21219;-86
2021/06/21 05:09:04;;;;;;;20.50;18.50;;;21.70;99.90;;;;;;4915052;28;20510;-86
2021/06/21 05:11:54;;;;;;;;;;;;;;;;;;;;;
2021/06/21 05:14:28;;;;;;;20.90;18.30;;;21.60;99.90;;;;;;4992982;28;20461;-85
2021/06/21 05:16:57;;;;;;;19.33;17.63;;;21.70;99.90;;;;;;4980085;28;20455;-85
2021/06/21 05:19:27;;;;;;;21.30;19.17;;;21.70;99.90;;;;;;4997065;28;20459;-86
2021/06/21 05:21:56;;;;;;;20.23;18.00;;;21.80;99.90;;;;;;4993518;28;20528;-86
2021/06/21 05:24:23;;;;;;;15.47;14.27;;;21.80;99.90;;;;;;4997440;28;20469;-85
2021/06/21 05:27:36;;;;;;;17.37;15.73;;;21.90;99.90;;;;;;4997344;28;20544;-87
2021/06/21 05:30:03;;;;;;;14.13;12.90;;;21.90;99.90;;;;;;4994562;28;20489;-84
2021/06/21 05:32:36;;;;;;;16.30;14.70;;;21.90;99.90;;;;;;4979346;28;20549;-87
2021/06/21 05:35:07;;;;;;;11.80;10.60;;;22.00;99.90;;;;;;4981886;28;20487;-85
2021/06/21 05:37:34;;;;;;;11.43;10.43;;;22.00;99.90;;;;;;4995797;28;20552;-86
2021/06/21 05:40:16;;;;;;;10.13;8.90;;;22.10;99.90;;;;;;4995369;28;20495;-86
2021/06/21 05:42:52;;;;;;;8.30;7.60;;;22.10;99.90;;;;;;4977842;28;20566;-86
2021/06/21 05:45:24;;;;;;;7.50;6.30;;;22.10;99.90;;;;;;4977640;28;20532;-86
2021/06/21 05:48:00;;;;;;;7.70;5.87;;;22.10;99.90;;;;;;4998941;28;20853;-85
2021/06/21 05:50:41;;;;;;;5.40;4.90;;;22.30;99.90;;;;;;4981775;28;20570;-85
2021/06/21 05:53:20;;;;;;;8.70;4.80;;;22.40;99.90;;;;;;4985093;28;20533;-85
2021/06/21 05:56:03;;;;;;;6.70;4.70;;;22.40;99.90;;;;;;4987081;28;20502;-86
2021/06/21 05:58:46;;;;;;;9.80;4.50;;;22.40;99.90;;;;;;4998070;28;20893;-86
2021/06/21 06:01:17;;;;;;;5.70;4.43;;;22.30;99.90;;;;;;4985116;28;20547;-84
2021/06/21 06:04:06;;;;;;;6.17;4.70;;;22.30;99.90;;;;;;4992321;28;20513;-85
2021/06/21 06:07:00;;;;;;;5.53;3.60;;;22.20;99.90;;;;;;5006442;28;20525;-85
2021/06/21 06:09:33;;;;;;;7.37;3.43;;;22.20;99.90;;;;;;5007825;28;20419;-85
2021/06/21 06:12:23;;;;;;;6.57;3.67;;;22.20;99.90;;;;;;5006926;28;20494;-86
2021/06/21 06:15:26;;;;;;;4.60;3.10;;;22.30;99.90;;;;;;5019247;28;20476;-85
2021/06/21 06:18:26;;;;;;;4.37;2.87;;;22.30;99.90;;;;;;5003160;28;20516;-83
2021/06/21 06:25:20;;;;;;;6.10;2.93;;;22.40;99.90;;;;;;4952703;28;20464;-85
2021/06/21 06:28:06;;;;;;;6.13;3.17;;;22.20;99.90;;;;;;4962229;28;20516;-84
2021/06/21 06:31:08;;;;;;;10.40;3.30;;;22.30;99.90;;;;;;4964665;28;20523;-85
2021/06/21 06:34:11;;;;;;;8.60;3.10;;;22.20;99.90;;;;;;4967184;28;20916;-85
2021/06/21 06:37:01;;;;;;;4.80;2.47;;;22.30;99.90;;;;;;4983883;28;20466;-84
2021/06/21 06:40:05;;;;;;;4.40;2.70;;;22.20;99.90;;;;;;4984893;28;20451;-85
2021/06/21 06:43:03;;;;;;;5.67;3.00;;;22.10;99.90;;;;;;4996838;28;20511;-86
2021/06/21 06:46:10;;;;;;;7.60;3.10;;;22.20;99.90;;;;;;4913673;29;20443;-86
2021/06/21 06:53:07;;;;;;;6.60;2.73;;;22.10;99.90;;;;;;4904944;29;20463;-86
2021/06/21 06:59:47;;;;;;;8.43;3.20;;;22.20;99.90;;;;;;4898935;29;20472;-86
2021/06/21 07:02:34;;;;;;;5.30;2.90;;;22.30;99.90;;;;;;4916730;29;20437;-85
2021/06/21 07:05:11;;;;;;;5.67;3.40;;;22.30;99.90;;;;;;4901773;29;20463;-85
2021/06/21 07:08:21;;;;;;;4.90;3.20;;;22.50;99.90;;;;;;4887695;29;20521;-84
2021/06/21 07:11:06;;;;;;;;;;;;;;;;;;;;;
2021/06/21 07:13:54;;;;;;;4.93;3.50;;;22.30;99.90;;;;;;4907484;29;20451;-83
2021/06/21 07:16:49;;;;;;;;;;;;;;;;;;;;;
2021/06/21 07:19:51;;;;;;;9.83;4.07;;;22.30;99.90;;;;;;4959839;28;20449;-86
2021/06/21 07:22:40;;;;;;;6.07;3.23;;;22.10;99.90;;;;;;4962386;28;20550;-84
2021/06/21 07:33:06;;;;;;;6.70;3.63;;;22.30;99.90;;;;;;4948545;29;20444;-83
2021/06/21 07:36:27;;;;;;;3.80;2.60;;;22.70;99.90;;;;;;4933206;29;20462;-86
2021/06/21 07:39:28;;;;;;;3.30;2.60;;;22.90;99.90;;;;;;4965788;28;20477;-84
2021/06/21 07:42:58;;;;;;;6.33;3.90;;;23.20;99.90;;;;;;4960239;28;20469;-85
2021/06/21 07:45:50;;;;;;;3.67;2.60;;;23.10;99.90;;;;;;4939770;29;20460;-85
2021/06/21 07:49:04;;;;;;;2.57;2.20;;;23.20;99.90;;;;;;4944893;29;20468;-86
2021/06/21 07:51:53;;;;;;;6.20;2.77;;;23.00;99.90;;;;;;4951476;28;20472;-85
2021/06/21 07:54:50;;;;;;;4.03;2.47;;;23.10;99.90;;;;;;4952602;29;20425;-86
2021/06/21 07:57:33;;;;;;;5.37;2.50;;;23.50;99.90;;;;;;4938505;29;20663;-86
2021/06/21 08:04:08;;;;;;;7.20;2.90;;;23.30;99.90;;;;;;5063035;22;22005;-87
2021/06/21 08:06:59;;;;;;;5.13;3.90;;;22.90;99.90;;;;;;5037711;28;20445;-85
2021/06/21 08:10:36;;;;;;;;;;;;;;;;;;;;;
2021/06/21 08:14:12;;;;;;;5.20;4.70;;;22.80;99.90;;;;;;5014703;28;20515;-85
2021/06/21 08:16:59;;;;;;;5.90;5.50;;;22.90;99.90;;;;;;5011838;28;20811;-83
2021/06/21 08:20:08;;;;;;;6.17;5.60;;;23.10;99.90;;;;;;5013434;28;20423;-84
2021/06/21 08:25:42;;;;;;;9.70;8.87;;;23.00;99.90;;;;;;5992163;22;20362;-85
2021/06/21 08:34:05;;;;;;;14.57;13.17;;;22.70;99.90;;;;;;5330119;23;20488;-85
2021/06/21 08:37:18;;;;;;;11.73;10.63;;;22.80;99.90;;;;;;5040238;28;20452;-85
2021/06/21 08:40:33;;;;;;;;;;;;;;;;;;;;;
2021/06/21 08:43:31;;;;;;;15.70;14.30;;;22.80;99.90;;;;;;5035993;28;20484;-85
2021/06/21 08:46:29;;;;;;;14.63;13.43;;;22.80;99.90;;;;;;5031202;28;20436;-85
2021/06/21 08:49:45;;;;;;;;;;;;;;;;;;;;;
2021/06/21 08:53:08;;;;;;;15.40;14.10;;;22.90;99.90;;;;;;5033626;28;20504;-85
2021/06/21 08:56:12;;;;;;;13.77;12.43;;;22.90;99.90;;;;;;4994823;28;20434;-84
2021/06/21 08:59:10;;;;;;;14.60;13.20;;;22.80;99.90;;;;;;5033375;28;20457;-84
2021/06/21 09:02:31;;;;;;;16.17;14.00;;;22.50;99.90;;;;;;5031554;28;20464;-86
2021/06/21 09:05:46;;;;;;;15.40;14.20;;;22.20;99.90;;;;;;5020464;28;20465;-85
2021/06/21 09:12:33;;;;;;;12.43;11.43;;;21.70;99.90;;;;;;5010924;28;20621;-84
2021/06/21 09:15:32;;;;;;;8.60;7.90;;;21.50;99.90;;;;;;5018639;28;20438;-83
2021/06/21 09:31:52;;;;;;;5.20;4.80;;;20.90;99.90;;;;;;4820625;29;20482;-85
2021/06/21 09:38:41;;;;;;;6.90;4.53;;;20.90;99.90;;;;;;4920702;29;20522;-85
2021/06/21 09:42:04;;;;;;;4.13;3.60;;;20.80;99.90;;;;;;4975248;28;20528;-85
2021/06/21 09:48:54;;;;;;;3.20;2.77;;;20.70;99.90;;;;;;4967760;28;20463;-85
2021/06/21 10:00:14;;;;;;;34.40;3.53;;;22.60;96.60;;;;;;4863174;29;20478;-85
2021/06/21 10:16:48;;;;;;;;;;;;;;;;;;;;;
2021/06/21 10:20:18;;;;;;;1.20;1.10;;;21.70;97.40;;;;;;4093189;26;20484;-86
2021/06/21 10:23:37;;;;;;;2.00;1.13;;;22.40;95.60;;;;;;4958847;28;20440;-85
2021/06/21 10:29:49;;;;;;;2.37;1.60;;;22.30;95.10;;;;;;3253299;26;21073;-86
2021/06/21 10:32:44;;;;;;;2.33;2.13;;;21.90;95.60;;;;;;4933843;29;20923;-86
2021/06/21 10:36:06;;;;;;;1.77;1.67;;;21.60;96.50;;;;;;5026707;28;20546;-85
2021/06/21 10:39:32;;;;;;;1.97;1.77;;;21.50;97.20;;;;;;5023564;28;20457;-86
2021/06/21 10:42:57;;;;;;;1.17;1.10;;;21.40;97.40;;;;;;5007398;28;20531;-86
2021/06/21 10:46:23;;;;;;;1.00;0.90;;;21.30;97.90;;;;;;5044241;28;20464;-87
2021/06/21 10:49:24;;;;;;;1.20;1.10;;;21.10;97.80;;;;;;5043700;28;20454;-87
2021/06/21 10:52:44;;;;;;;0.70;0.70;;;21.10;98.40;;;;;;5044838;28;21373;-87
2021/06/21 10:59:38;;;;;;;1.10;0.97;;;21.00;97.70;;;;;;5031284;28;20471;-88
2021/06/21 11:02:55;;;;;;;;;;;;;;;;;;;;;
2021/06/21 11:10:06;;;;;;;0.60;0.60;;;20.80;98.10;;;;;;5327640;23;20486;-87
2021/06/21 11:39:52;;;;;;;;;;;;;;;;;;;;;
2021/06/21 11:42:38;;;;;;;1.20;1.00;;;21.80;96.60;;;;;;5013093;28;20507;-84
2021/06/21 11:46:12;;;;;;;1.23;0.90;;;21.90;96.10;;;;;;5007702;28;20554;-84
2021/06/21 11:52:41;;;;;;;2.03;1.83;;;21.70;96.40;;;;;;4996406;28;20524;-83
2021/06/21 11:59:25;;;;;;;1.67;1.57;;;21.80;96.20;;;;;;4952087;28;20558;-86
2021/06/21 12:02:27;;;;;;;1.60;1.50;;;21.90;96.30;;;;;;4966087;28;20475;-85
2021/06/21 12:06:04;;;;;;;2.60;1.50;;;21.90;96.00;;;;;;4977666;28;20528;-86
2021/06/21 12:09:45;;;;;;;1.30;1.20;;;21.70;96.10;;;;;;4937170;28;21293;-83
2021/06/21 12:12:31;;;;;;;1.50;1.40;;;21.60;96.20;;;;;;4913030;29;20590;-84
2021/06/21 12:19:28;;;;;;;1.03;1.00;;;21.30;96.60;;;;;;4855260;29;20457;-84
2021/06/21 12:22:35;;;;;;;1.10;1.10;;;21.40;96.60;;;;;;4855395;29;20898;-84
2021/06/21 12:25:56;;;;;;;3.20;2.40;;;21.30;96.60;;;;;;4928454;29;20560;-84
2021/06/21 12:28:50;;;;;;;19.83;9.00;;;21.10;96.80;;;;;;5001882;28;20477;-84
2021/06/21 12:31:29;;;;;;;5.20;2.50;;;21.00;96.80;;;;;;4987400;28;20491;-86
2021/06/21 12:34:57;;;;;;;1.73;1.63;;;21.10;96.80;;;;;;4989346;28;20447;-84
2021/06/21 12:37:52;;;;;;;1.03;1.03;;;21.10;96.70;;;;;;4977808;28;20466;-84
2021/06/21 12:40:58;;;;;;;1.60;1.50;;;21.00;96.80;;;;;;4987267;28;20588;-84
2021/06/21 12:44:02;;;;;;;3.70;2.00;;;20.90;96.80;;;;;;4985702;28;20557;-85
2021/06/21 12:47:12;;;;;;;2.33;2.13;;;20.90;97.10;;;;;;4914929;28;20438;-84
2021/06/21 12:50:05;;;;;;;1.80;1.70;;;20.90;97.00;;;;;;4995750;28;20446;-85
2021/06/21 12:52:53;;;;;;;2.77;1.60;;;20.70;97.40;;;;;;4982752;28;20513;-83
2021/06/21 12:55:48;;;;;;;1.50;1.40;;;20.70;97.20;;;;;;4993799;28;20478;-84
2021/06/21 12:58:55;;;;;;;1.90;1.70;;;20.60;97.40;;;;;;4993333;28;20549;-83
2021/06/21 13:01:42;;;;;;;1.87;1.77;;;20.60;97.80;;;;;;4991141;28;20450;-83
2021/06/21 13:04:24;;;;;;;2.60;1.97;;;20.70;97.80;;;;;;4991796;28;20984;-85
2021/06/21 13:07:26;;;;;;;2.07;1.67;;;20.70;98.00;;;;;;4991162;28;20440;-85
2021/06/21 13:10:33;;;;;;;2.00;1.90;;;20.50;97.80;;;;;;4994029;28;20459;-85
2021/06/21 13:18:47;;;;;;;1.63;1.60;;;20.40;98.30;;;;;;4925491;28;20465;-85
2021/06/21 13:21:50;;;;;;;4.43;2.40;;;20.50;98.50;;;;;;4866497;29;20771;-84
2021/06/21 13:24:59;;;;;;;3.00;2.00;;;20.50;98.50;;;;;;4883146;29;20467;-85
2021/06/21 13:28:04;;;;;;;3.93;3.70;;;20.50;98.70;;;;;;4827699;29;20562;-84
2021/06/21 13:30:58;;;;;;;4.20;4.00;;;20.60;98.80;;;;;;4920437;28;20460;-84
2021/06/21 13:34:06;;;;;;;3.73;3.43;;;20.60;98.40;;;;;;4986939;28;20547;-85
2021/06/21 13:37:12;;;;;;;4.63;3.70;;;20.60;98.30;;;;;;4995231;28;20575;-81
2021/06/21 13:50:41;;;;;;;3.33;3.13;;;20.80;98.10;;;;;;5091471;22;20573;-82
2021/06/21 13:53:35;;;;;;;3.33;3.13;;;20.70;98.20;;;;;;5019658;28;20477;-85
2021/06/21 13:56:39;;;;;;;3.13;2.93;;;20.60;98.50;;;;;;5032454;28;20759;-84
2021/06/21 13:59:32;;;;;;;2.70;2.50;;;20.60;98.50;;;;;;5008386;28;20446;-85
2021/06/21 14:02:06;;;;;;;2.50;2.40;;;20.60;98.70;;;;;;5011870;28;20443;-83
2021/06/21 14:04:43;;;;;;;2.50;2.30;;;20.60;98.90;;;;;;4993846;28;20537;-84
2021/06/21 14:07:19;;;;;;;2.70;2.50;;;20.80;98.70;;;;;;4994025;28;20561;-85
2021/06/21 14:14:35;;;;;;;2.73;2.53;;;21.00;97.40;;;;;;4957394;28;22212;-84
2021/06/21 14:17:03;;;;;;;2.67;2.57;;;21.00;97.60;;;;;;4977341;28;20477;-82
2021/06/21 14:19:47;;;;;;;2.60;2.50;;;21.30;97.40;;;;;;4993535;28;20457;-84
2021/06/21 14:22:32;;;;;;;5.10;2.63;;;21.60;96.40;;;;;;4996525;28;20463;-84
2021/06/21 14:25:08;;;;;;;2.07;1.97;;;21.50;96.30;;;;;;4994037;28;20513;-85
2021/06/21 14:28:04;;;;;;;2.50;2.40;;;21.40;96.30;;;;;;4994747;28;20478;-85
2021/06/21 14:31:17;;;;;;;4.20;2.00;;;21.60;96.00;;;;;;5018963;28;20455;-84
2021/06/21 14:34:27;;;;;;;;;;;;;;;;;;;;;
2021/06/21 14:37:16;;;;;;;2.00;1.90;;;22.50;94.40;;;;;;5021168;28;20431;-84
2021/06/21 14:40:07;;;;;;;1.60;1.50;;;22.20;94.40;;;;;;5013442;28;20436;-84
2021/06/21 14:42:56;;;;;;;;;;;;;;;;;;;;;
2021/06/21 14:45:40;;;;;;;1.50;1.40;;;22.10;94.70;;;;;;5009346;28;20431;-83
2021/06/21 14:48:42;;;;;;;1.97;1.50;;;22.20;94.50;;;;;;5016080;28;20482;-82
2021/06/21 14:56:10;;;;;;;1.80;1.70;;;22.00;94.20;;;;;;4958948;29;20449;-82
2021/06/21 15:03:20;;;;;;;2.30;2.20;;;21.70;95.70;;;;;;4941374;29;20468;-85
2021/06/21 15:06:43;;;;;;;2.33;2.23;;;22.10;94.90;;;;;;4943801;28;20452;-86
2021/06/21 15:09:19;;;;;;;1.87;1.77;;;22.00;94.70;;;;;;4931660;28;20477;-84
2021/06/21 15:11:50;;;;;;;2.20;2.00;;;21.70;94.80;;;;;;4957169;28;20494;-83
2021/06/21 15:14:39;;;;;;;;;;;;;;;;;;;;;
2021/06/21 15:19:58;;;;;;;1.93;1.83;;;22.00;94.50;;;;;;4674722;23;10002255;-84
2021/06/21 15:26:44;;;;;;;2.23;2.13;;;22.00;93.90;;;;;;4951630;28;20970;-86
2021/06/21 15:29:36;;;;;;;1.97;1.87;;;21.70;94.70;;;;;;4918621;29;20524;-85
2021/06/21 15:32:16;;;;;;;1.83;1.73;;;21.80;95.00;;;;;;4932674;29;20490;-84
2021/06/21 15:38:43;;;;;;;3.13;2.93;;;22.10;94.30;;;;;;5001796;28;20996;-83
2021/06/21 15:45:12;;;;;;;2.40;2.30;;;22.30;93.40;;;;;;5013356;28;20500;-86
2021/06/21 15:51:53;;;;;;;2.20;2.00;;;22.00;94.60;;;;;;4964001;29;20557;-86
2021/06/21 15:55:30;;;;;;;2.30;2.20;;;22.00;94.90;;;;;;4934803;29;20647;-86
2021/06/21 15:58:40;;;;;;;2.57;2.47;;;22.00;94.40;;;;;;5278181;23;20496;-85
2021/06/21 16:01:41;;;;;;;2.40;2.30;;;21.90;94.40;;;;;;5052765;28;20453;-86
2021/06/21 16:04:33;;;;;;;2.13;2.03;;;22.10;94.50;;;;;;5052877;28;21416;-86
2021/06/21 16:11:10;;;;;;;2.00;1.80;;;22.30;93.70;;;;;;4862482;29;20538;-84
2021/06/21 16:13:56;;;;;;;;;;;;;;;;;;;;;
2021/06/21 16:17:11;;;;;;;3.17;2.50;;;22.30;93.40;;;;;;4949360;28;20531;-84
2021/06/21 16:19:55;;;;;;;2.37;2.27;;;22.30;93.30;;;;;;4948627;28;20571;-84
2021/06/21 16:22:38;;;;;;;3.50;3.30;;;22.10;93.60;;;;;;4926458;28;20460;-84
2021/06/21 16:25:15;;;;;;;3.17;3.07;;;21.90;93.90;;;;;;4926053;28;20582;-86
2021/06/21 16:32:58;;;;;;;6.10;5.70;;;21.90;94.10;;;;;;4939682;28;20479;-85
2021/06/21 16:42:29;;;;;;;7.00;6.50;;;21.90;94.00;;;;;;5090442;23;20502;-84
2021/06/21 16:49:04;;;;;;;8.57;7.90;;;21.50;94.40;;;;;;5007323;28;20444;-84
2021/06/21 16:51:42;;;;;;;8.47;7.80;;;21.80;93.80;;;;;;5008010;28;20469;-83
2021/06/21 17:27:45;;;;;;;5.73;5.33;;;21.40;94.30;;;;;;4957138;28;20248;-84
2021/06/21 17:30:21;;;;;;;4.30;4.00;;;21.40;94.50;;;;;;4873082;29;20488;-85
2021/06/21 17:33:06;;;;;;;3.63;3.43;;;21.30;94.30;;;;;;4879735;29;20614;-83
2021/06/21 17:35:49;;;;;;;3.00;2.80;;;21.20;94.10;;;;;;4968865;28;20479;-86
2021/06/21 17:46:18;;;;;;;3.63;3.33;;;21.30;93.70;;;;;;5020483;28;20468;-82
2021/06/21 17:49:08;;;;;;;5.23;4.93;;;21.20;93.90;;;;;;4997792;28;20538;-85
2021/06/21 17:52:48;;;;;;;4.77;4.50;;;21.10;93.80;;;;;;4990605;28;20439;-84
2021/06/21 17:55:38;;;;;;;4.70;4.40;;;21.20;93.10;;;;;;4990438;28;21931;-85
2021/06/21 18:06:30;;;;;;;3.90;3.70;;;21.10;93.20;;;;;;5025538;28;20557;-86
2021/06/21 18:12:40;;;;;;;4.70;4.40;;;21.30;93.00;;;;;;4994094;28;20486;-85
2021/06/21 18:19:35;;;;;;;4.47;4.17;;;21.00;93.60;;;;;;4975231;23;20508;-85
2021/06/21 18:23:02;;;;;;;4.03;3.83;;;21.10;92.90;;;;;;5018041;28;20530;-84
2021/06/21 18:25:35;;;;;;;4.20;4.00;;;21.10;92.90;;;;;;5032503;28;20522;-85
2021/06/21 18:36:05;;;;;;;3.73;3.53;;;20.80;93.40;;;;;;5011899;28;20464;-83
2021/06/21 18:38:44;;;;;;;3.43;3.23;;;20.90;93.90;;;;;;5014884;28;20466;-85
2021/06/21 18:41:36;;;;;;;3.60;3.40;;;21.00;93.40;;;;;;5018287;28;20479;-85
2021/06/21 18:44:37;;;;;;;3.10;3.00;;;21.00;93.50;;;;;;5019255;28;20468;-82
2021/06/21 18:47:18;;;;;;;3.73;3.53;;;21.00;93.80;;;;;;5030341;28;20487;-84
2021/06/21 18:50:03;;;;;;;3.97;3.67;;;20.80;94.00;;;;;;5017048;28;20565;-84
2021/06/21 18:52:54;;;;;;;3.00;2.90;;;20.70;94.30;;;;;;5009003;28;20544;-85
2021/06/21 19:05:33;;;;;;;;;;;;;;;;;;;;;
2021/06/21 19:19:43;;;;;;;2.40;2.30;;;20.60;94.70;;;;;;5579683;23;20505;-82
2021/06/21 19:23:02;;;;;;;2.33;1.90;;;20.70;94.70;;;;;;4993103;28;20485;-85
2021/06/21 19:29:46;;;;;;;1.60;1.50;;;20.60;94.10;;;;;;4933946;28;20429;-85
2021/06/21 19:53:18;;;;;;;1.37;1.30;;;20.60;93.60;;;;;;5004607;28;20581;-83
2021/06/21 19:56:25;;;;;;;;;;;;;;;;;;;;;
2021/06/21 19:59:18;;;;;;;1.37;1.27;;;20.50;94.10;;;;;;5003023;28;20991;-85
2021/06/21 20:10:15;;;;;;;1.20;0.90;;;20.40;93.50;;;;;;4972298;28;20423;-84
2021/06/21 20:23:41;;;;;;;2.40;1.00;;;20.00;93.60;;;;;;1384987;26;20474;-85
2021/06/21 20:26:16;;;;;;;1.00;0.90;;;20.00;93.90;;;;;;5004880;28;20446;-83
2021/06/21 20:43:09;;;;;;;1.00;1.00;;;19.90;94.30;;;;;;1373130;23;20968;-84
2021/06/21 20:46:13;;;;;;;1.50;1.40;;;19.90;94.70;;;;;;4991188;28;20511;-85
2021/06/21 20:48:42;;;;;;;1.43;1.33;;;19.90;95.10;;;;;;4998987;28;20552;-84
2021/06/21 20:51:15;;;;;;;1.40;1.30;;;20.20;94.90;;;;;;4992684;28;20561;-83
2021/06/21 20:58:03;;;;;;;0.90;0.90;;;19.90;95.10;;;;;;4945129;28;20470;-86
2021/06/21 21:04:46;;;;;;;1.70;0.90;;;20.00;94.30;;;;;;4858615;29;20524;-85
2021/06/21 21:18:00;;;;;;;2.47;2.00;;;20.00;94.80;;;;;;1202925;23;20883;-85
2021/06/21 21:24:47;;;;;;;1.57;1.43;;;20.10;93.90;;;;;;4927602;28;20434;-84
2021/06/21 21:28:00;;;;;;;1.50;1.40;;;19.90;94.40;;;;;;4998161;28;20540;-85
2021/06/21 21:49:05;;;;;;;1.30;1.20;;;20.10;94.70;;;;;;5029382;28;20493;-82
2021/06/21 21:51:43;;;;;;;1.17;1.10;;;19.90;95.00;;;;;;5021078;28;20446;-84
2021/06/21 22:01:38;;;;;;;1.77;1.37;;;20.10;94.30;;;;;;5000681;28;20821;-83
2021/06/21 22:04:27;;;;;;;1.13;1.13;;;19.90;94.50;;;;;;4980054;28;20447;-84
2021/06/21 22:12:43;;;;;;;1.60;1.50;;;19.80;95.00;;;;;;5013499;28;20484;-84